sensor_id;sensor_type;location;lat;lon;timestamp;pressure;altitude;pressure_sealevel;temperature;humidity
20622;BME280;10470;42.670;23.354;2022-12-29T00:01:06;95725.13;;;5.67;100.00
20622;BME280;10470;42.670;23.354;2022-12-29T00:03:52;95710.06;;;5.66;100.00
20622;BME280;10470;42.670;23.354;2022-12-29T00:06:28;95709.66;;;5.71;100.00
20622;BME280;10470;42.670;23.354;2022-12-29T00:09:15;95715.03;;;5.78;100.00
20622;BME280;10470;42.670;23.354;2022-12-29T00:12:03;95715.44;;;5.73;100.00
20622;BME280;10470;42.670;23.354;2022-12-29T00:14:49;95723.91;;;5.82;100.00
20622;BME280;10470;42.670;23.354;2022-12-29T00:17:53;95721.59;;;5.84;100.00
20622;BME280;10470;42.670;23.354;2022-12-29T00:20:38;95725.06;;;5.81;100.00
20622;BME280;10470;42.670;23.354;2022-12-29T00:23:42;95727.34;;;5.94;100.00
20622;BME280;10470;42.670;23.354;2022-12-29T00:26:48;95721.56;;;5.88;100.00
20622;BME280;10470;42.670;23.354;2022-12-29T00:29:42;95724.25;;;5.88;100.00
20622;BME280;10470;42.670;23.354;2022-12-29T00:32:46;95724.66;;;5.83;100.00
20622;BME280;10470;42.670;23.354;2022-12-29T00:35:53;95734.28;;;5.91;100.00
20622;BME280;10470;42.670;23.354;2022-12-29T00:38:40;95734.69;;;5.86;100.00
20622;BME280;10470;42.670;23.354;2022-12-29T00:41:47;95742.06;;;5.78;100.00
20622;BME280;10470;42.670;23.354;2022-12-29T00:44:51;95733.63;;;5.62;100.00
20622;BME280;10470;42.670;23.354;2022-12-29T00:47:37;95739.81;;;5.66;100.00
20622;BME280;10470;42.670;23.354;2022-12-29T00:50:22;95732.47;;;5.59;100.00
20622;BME280;10470;42.670;23.354;2022-12-29T00:53:08;95739.00;;;5.76;100.00
20622;BME280;10470;42.670;23.354;2022-12-29T00:55:53;95745.19;;;5.77;100.00
20622;BME280;10470;42.670;23.354;2022-12-29T00:58:38;95734.78;;;5.57;100.00
20622;BME280;10470;42.670;23.354;2022-12-29T01:01:24;95734.75;;;5.75;100.00
20622;BME280;10470;42.670;23.354;2022-12-29T01:04:10;95735.16;;;5.66;100.00
20622;BME280;10470;42.670;23.354;2022-12-29T01:06:55;95729.38;;;5.57;100.00
20622;BME280;10470;42.670;23.354;2022-12-29T01:09:41;95747.09;;;5.80;100.00
20622;BME280;10470;42.670;23.354;2022-12-29T01:12:45;95732.00;;;5.86;100.00
20622;BME280;10470;42.670;23.354;2022-12-29T01:15:32;95737.78;;;5.95;100.00
20622;BME280;10470;42.670;23.354;2022-12-29T01:18:18;95744.38;;;5.94;100.00
20622;BME280;10470;42.670;23.354;2022-12-29T01:21:05;95729.69;;;5.84;100.00
20622;BME280;10470;42.670;23.354;2022-12-29T01:23:51;95723.13;;;5.85;100.00
20622;BME280;10470;42.670;23.354;2022-12-29T01:26:36;95724.25;;;5.88;100.00
20622;BME280;10470;42.670;23.354;2022-12-29T01:29:22;95729.28;;;5.89;100.00
20622;BME280;10470;42.670;23.354;2022-12-29T01:32:03;95723.84;;;5.93;100.00
20622;BME280;10470;42.670;23.354;2022-12-29T01:34:49;95723.88;;;5.86;100.00
20622;BME280;10470;42.670;23.354;2022-12-29T01:37:29;95726.97;;;5.91;100.00
20622;BME280;10470;42.670;23.354;2022-12-29T01:40:15;95716.19;;;5.84;100.00
20622;BME280;10470;42.670;23.354;2022-12-29T01:42:54;95725.41;;;5.90;100.00
20622;BME280;10470;42.670;23.354;2022-12-29T01:45:45;95720.03;;;5.83;100.00
20622;BME280;10470;42.670;23.354;2022-12-29T01:48:32;95718.47;;;5.86;100.00
20622;BME280;10470;42.670;23.354;2022-12-29T01:51:17;95710.00;;;5.84;100.00
20622;BME280;10470;42.670;23.354;2022-12-29T01:54:06;95713.06;;;5.86;100.00
20622;BME280;10470;42.670;23.354;2022-12-29T01:56:55;95715.34;;;5.91;100.00
20622;BME280;10470;42.670;23.354;2022-12-29T01:59:43;95704.25;;;5.67;100.00
20622;BME280;10470;42.670;23.354;2022-12-29T02:02:31;95698.81;;;5.82;100.00
20622;BME280;10470;42.670;23.354;2022-12-29T02:05:27;95698.84;;;5.67;100.00
20622;BME280;10470;42.670;23.354;2022-12-29T02:08:16;95699.22;;;5.73;100.00
20622;BME280;10470;42.670;23.354;2022-12-29T02:11:02;95702.63;;;5.88;100.00
20622;BME280;10470;42.670;23.354;2022-12-29T02:13:48;95700.84;;;5.56;100.00
20622;BME280;10470;42.670;23.354;2022-12-29T02:20:11;95702.44;;;5.43;100.00
20622;BME280;10470;42.670;23.354;2022-12-29T02:23:03;95702.41;;;5.50;100.00
20622;BME280;10470;42.670;23.354;2022-12-29T02:26:19;95695.03;;;5.58;100.00
20622;BME280;10470;42.670;23.354;2022-12-29T02:29:40;95696.88;;;5.79;100.00
20622;BME280;10470;42.670;23.354;2022-12-29T02:38:43;95696.50;;;5.77;100.00
20622;BME280;10470;42.670;23.354;2022-12-29T02:42:13;95686.06;;;5.75;100.00
20622;BME280;10470;42.670;23.354;2022-12-29T02:44:59;95690.31;;;5.73;100.00
20622;BME280;10470;42.670;23.354;2022-12-29T02:47:57;95679.53;;;5.69;100.00
20622;BME280;10470;42.670;23.354;2022-12-29T02:51:02;95698.81;;;5.82;100.00
20622;BME280;10470;42.670;23.354;2022-12-29T02:53:48;95693.41;;;5.75;100.00
20622;BME280;10470;42.670;23.354;2022-12-29T02:56:52;95689.16;;;5.77;100.00
20622;BME280;10470;42.670;23.354;2022-12-29T02:59:38;95662.56;;;5.68;100.00
20622;BME280;10470;42.670;23.354;2022-12-29T03:08:39;95680.38;;;5.55;100.00
20622;BME280;10470;42.670;23.354;2022-12-29T03:11:39;95688.06;;;5.64;100.00
20622;BME280;10470;42.670;23.354;2022-12-29T03:14:55;95682.69;;;5.60;100.00
20622;BME280;10470;42.670;23.354;2022-12-29T03:18:06;95680.72;;;5.64;100.00
20622;BME280;10470;42.670;23.354;2022-12-29T03:21:09;95669.16;;;5.57;100.00
20622;BME280;10470;42.670;23.354;2022-12-29T03:23:57;95664.59;;;5.43;100.00
20622;BME280;10470;42.670;23.354;2022-12-29T03:26:43;95667.25;;;5.54;100.00
20622;BME280;10470;42.670;23.354;2022-12-29T03:29:37;95668.06;;;5.43;100.00
20622;BME280;10470;42.670;23.354;2022-12-29T03:32:28;95674.59;;;5.46;100.00
20622;BME280;10470;42.670;23.354;2022-12-29T03:35:19;95660.31;;;5.53;100.00
20622;BME280;10470;42.670;23.354;2022-12-29T03:38:24;95676.56;;;5.45;100.00
20622;BME280;10470;42.670;23.354;2022-12-29T03:41:19;95675.00;;;5.41;100.00
20622;BME280;10470;42.670;23.354;2022-12-29T03:44:06;95684.69;;;5.35;100.00
20622;BME280;10470;42.670;23.354;2022-12-29T03:46:52;95683.16;;;5.26;100.00
20622;BME280;10470;42.670;23.354;2022-12-29T03:49:38;95680.88;;;5.21;100.00
20622;BME280;10470;42.670;23.354;2022-12-29T03:52:23;95684.38;;;5.00;100.00
20622;BME280;10470;42.670;23.354;2022-12-29T03:55:09;95692.09;;;5.02;100.00
20622;BME280;10470;42.670;23.354;2022-12-29T03:57:54;95691.75;;;4.75;100.00
20622;BME280;10470;42.670;23.354;2022-12-29T04:00:40;95703.31;;;4.93;100.00
20622;BME280;10470;42.670;23.354;2022-12-29T04:03:25;95700.59;;;4.93;100.00
20622;BME280;10470;42.670;23.354;2022-12-29T04:06:11;95704.44;;;4.92;100.00
20622;BME280;10470;42.670;23.354;2022-12-29T04:08:56;95706.00;;;4.82;100.00
20622;BME280;10470;42.670;23.354;2022-12-29T04:11:42;95696.38;;;4.78;100.00
20622;BME280;10470;42.670;23.354;2022-12-29T04:14:27;95681.31;;;4.66;100.00
20622;BME280;10470;42.670;23.354;2022-12-29T04:17:13;95688.66;;;4.62;100.00
20622;BME280;10470;42.670;23.354;2022-12-29T04:19:58;95692.13;;;4.70;100.00
20622;BME280;10470;42.670;23.354;2022-12-29T04:23:04;95692.91;;;4.70;100.00
20622;BME280;10470;42.670;23.354;2022-12-29T04:25:50;95689.81;;;4.68;100.00
20622;BME280;10470;42.670;23.354;2022-12-29T04:28:36;95694.81;;;4.73;100.00
20622;BME280;10470;42.670;23.354;2022-12-29T04:31:21;95691.34;;;4.55;100.00
20622;BME280;10470;42.670;23.354;2022-12-29T04:34:07;95706.38;;;4.85;100.00
20622;BME280;10470;42.670;23.354;2022-12-29T04:36:52;95702.91;;;4.95;100.00
20622;BME280;10470;42.670;23.354;2022-12-29T04:39:38;95701.38;;;4.87;100.00
20622;BME280;10470;42.670;23.354;2022-12-29T04:42:23;95710.63;;;4.57;100.00
20622;BME280;10470;42.670;23.354;2022-12-29T04:45:09;95696.34;;;4.53;100.00
20622;BME280;10470;42.670;23.354;2022-12-29T04:47:54;95690.94;;;4.56;100.00
20622;BME280;10470;42.670;23.354;2022-12-29T04:50:41;95711.41;;;4.65;100.00
20622;BME280;10470;42.670;23.354;2022-12-29T04:53:26;95726.81;;;4.60;100.00
20622;BME280;10470;42.670;23.354;2022-12-29T04:56:12;95717.97;;;4.67;100.00
20622;BME280;10470;42.670;23.354;2022-12-29T04:58:57;95725.28;;;4.52;100.00
20622;BME280;10470;42.670;23.354;2022-12-29T05:01:43;95725.66;;;4.47;100.00
20622;BME280;10470;42.670;23.354;2022-12-29T05:04:28;95721.03;;;4.58;100.00
20622;BME280;10470;42.670;23.354;2022-12-29T05:07:14;95723.34;;;4.49;100.00
20622;BME280;10470;42.670;23.354;2022-12-29T05:09:59;95722.59;;;4.59;100.00
20622;BME280;10470;42.670;23.354;2022-12-29T05:12:45;95720.25;;;4.51;100.00
20622;BME280;10470;42.670;23.354;2022-12-29T05:15:30;95722.56;;;4.45;100.00
20622;BME280;10470;42.670;23.354;2022-12-29T05:18:16;95723.31;;;4.31;100.00
20622;BME280;10470;42.670;23.354;2022-12-29T05:21:02;95711.00;;;4.34;100.00
20622;BME280;10470;42.670;23.354;2022-12-29T05:23:47;95725.66;;;4.47;100.00
20622;BME280;10470;42.670;23.354;2022-12-29T05:26:32;95726.41;;;4.51;100.00
20622;BME280;10470;42.670;23.354;2022-12-29T05:29:18;95724.13;;;4.57;100.00
20622;BME280;10470;42.670;23.354;2022-12-29T05:32:03;95717.16;;;4.34;100.00
20622;BME280;10470;42.670;23.354;2022-12-29T05:34:49;95717.94;;;4.31;100.00
20622;BME280;10470;42.670;23.354;2022-12-29T05:37:34;95710.59;;;4.21;100.00
20622;BME280;10470;42.670;23.354;2022-12-29T05:40:20;95708.28;;;4.30;100.00
20622;BME280;10470;42.670;23.354;2022-12-29T05:43:05;95729.50;;;4.50;100.00
20622;BME280;10470;42.670;23.354;2022-12-29T05:45:51;95712.16;;;4.58;100.00
20622;BME280;10470;42.670;23.354;2022-12-29T05:48:37;95724.50;;;4.55;100.00
20622;BME280;10470;42.670;23.354;2022-12-29T05:51:23;95725.28;;;4.59;100.00
20622;BME280;10470;42.670;23.354;2022-12-29T05:54:08;95734.53;;;4.62;100.00
20622;BME280;10470;42.670;23.354;2022-12-29T05:56:40;95739.16;;;4.62;100.00
20622;BME280;10470;42.670;23.354;2022-12-29T05:59:26;95729.13;;;4.58;100.00
20622;BME280;10470;42.670;23.354;2022-12-29T06:02:11;95728.75;;;4.71;100.00
20622;BME280;10470;42.670;23.354;2022-12-29T06:04:57;95727.97;;;4.63;100.00
20622;BME280;10470;42.670;23.354;2022-12-29T06:07:42;95729.53;;;4.57;100.00
20622;BME280;10470;42.670;23.354;2022-12-29T06:10:27;95724.13;;;4.64;100.00
20622;BME280;10470;42.670;23.354;2022-12-29T06:13:13;95746.50;;;4.68;100.00
20622;BME280;10470;42.670;23.354;2022-12-29T06:15:58;95731.84;;;4.73;100.00
20622;BME280;10470;42.670;23.354;2022-12-29T06:18:44;95743.00;;;4.64;100.00
20622;BME280;10470;42.670;23.354;2022-12-29T06:21:29;95738.38;;;4.61;100.00
20622;BME280;10470;42.670;23.354;2022-12-29T06:24:15;95728.75;;;4.74;100.00
20622;BME280;10470;42.670;23.354;2022-12-29T06:27:00;95738.78;;;4.81;100.00
20622;BME280;10470;42.670;23.354;2022-12-29T06:29:44;95733.00;;;4.79;100.00
20622;BME280;10470;42.670;23.354;2022-12-29T06:32:29;95732.97;;;5.00;100.00
20622;BME280;10470;42.670;23.354;2022-12-29T06:35:11;95734.91;;;5.07;100.00
20622;BME280;10470;42.670;23.354;2022-12-29T06:37:57;95736.09;;;5.06;100.00
20622;BME280;10470;42.670;23.354;2022-12-29T06:40:38;95743.38;;;5.23;100.00
20622;BME280;10470;42.670;23.354;2022-12-29T06:43:23;95752.59;;;5.44;100.00
20622;BME280;10470;42.670;23.354;2022-12-29T06:46:05;95743.28;;;5.59;100.00
20622;BME280;10470;42.670;23.354;2022-12-29T06:48:51;95748.72;;;5.48;100.00
20622;BME280;10470;42.670;23.354;2022-12-29T06:51:32;95746.78;;;5.63;100.00
20622;BME280;10470;42.670;23.354;2022-12-29T06:54:18;95745.97;;;5.74;100.00
20622;BME280;10470;42.670;23.354;2022-12-29T06:56:58;95756.34;;;5.89;100.00
20622;BME280;10470;42.670;23.354;2022-12-29T06:59:43;95766.88;;;5.55;100.00
20622;BME280;10470;42.670;23.354;2022-12-29T07:02:23;95757.94;;;5.73;100.00
20622;BME280;10470;42.670;23.354;2022-12-29T07:05:10;95768.41;;;5.56;100.00
20622;BME280;10470;42.670;23.354;2022-12-29T07:07:50;95760.28;;;5.60;100.00
20622;BME280;10470;42.670;23.354;2022-12-29T07:10:36;95758.22;;;6.10;100.00
20622;BME280;10470;42.670;23.354;2022-12-29T07:13:17;95766.63;;;6.27;100.00
20622;BME280;10470;42.670;23.354;2022-12-29T07:16:09;95758.84;;;6.36;100.00
20622;BME280;10470;42.670;23.354;2022-12-29T07:18:43;95765.81;;;6.30;100.00
20622;BME280;10470;42.670;23.354;2022-12-29T07:21:29;95755.69;;;6.45;100.00
20622;BME280;10470;42.670;23.354;2022-12-29T07:24:11;95765.28;;;6.60;100.00
20622;BME280;10470;42.670;23.354;2022-12-29T07:26:56;95757.88;;;5.98;100.00
20622;BME280;10470;42.670;23.354;2022-12-29T07:29:37;95763.63;;;6.10;100.00
20622;BME280;10470;42.670;23.354;2022-12-29T07:32:23;95759.72;;;6.19;100.00
20622;BME280;10470;42.670;23.354;2022-12-29T07:35:02;95760.47;;;6.19;100.00
20622;BME280;10470;42.670;23.354;2022-12-29T07:37:47;95771.75;;;6.73;100.00
20622;BME280;10470;42.670;23.354;2022-12-29T07:40:28;95774.00;;;6.82;100.00
20622;BME280;10470;42.670;23.354;2022-12-29T07:43:13;95776.28;;;6.91;100.00
20622;BME280;10470;42.670;23.354;2022-12-29T07:45:57;95779.09;;;6.76;100.00
20622;BME280;10470;42.670;23.354;2022-12-29T07:48:42;95784.47;;;6.84;100.00
20622;BME280;10470;42.670;23.354;2022-12-29T07:51:22;95779.41;;;6.86;100.00
20622;BME280;10470;42.670;23.354;2022-12-29T07:54:08;95781.91;;;7.14;100.00
20622;BME280;10470;42.670;23.354;2022-12-29T07:56:50;95789.91;;;7.29;100.00
20622;BME280;10470;42.670;23.354;2022-12-29T07:59:36;95785.28;;;7.29;100.00
20622;BME280;10470;42.670;23.354;2022-12-29T08:02:18;95788.09;;;7.15;100.00
20622;BME280;10470;42.670;23.354;2022-12-29T08:05:04;95793.31;;;7.36;100.00
20622;BME280;10470;42.670;23.354;2022-12-29T08:07:45;95802.31;;;7.71;100.00
20622;BME280;10470;42.670;23.354;2022-12-29T08:10:31;95809.38;;;7.61;100.00
20622;BME280;10470;42.670;23.354;2022-12-29T08:13:12;95806.53;;;7.76;100.00
20622;BME280;10470;42.670;23.354;2022-12-29T08:15:58;95804.53;;;7.80;100.00
20622;BME280;10470;42.670;23.354;2022-12-29T08:18:39;95804.41;;;7.91;100.00
20622;BME280;10470;42.670;23.354;2022-12-29T08:21:25;95777.72;;;7.85;100.00
20622;BME280;10470;42.670;23.354;2022-12-29T08:24:06;95793.94;;;7.93;100.00
20622;BME280;10470;42.670;23.354;2022-12-29T08:26:51;95807.97;;;8.18;100.00
20622;BME280;10470;42.670;23.354;2022-12-29T08:29:31;95804.50;;;8.18;100.00
20622;BME280;10470;42.670;23.354;2022-12-29T08:32:17;95781.69;;;7.77;100.00
20622;BME280;10470;42.670;23.354;2022-12-29T08:34:59;95805.31;;;8.15;100.00
20622;BME280;10470;42.670;23.354;2022-12-29T08:37:45;95804.59;;;8.10;100.00
20622;BME280;10470;42.670;23.354;2022-12-29T08:40:26;95795.47;;;7.94;100.00
20622;BME280;10470;42.670;23.354;2022-12-29T08:43:12;95796.25;;;7.94;100.00
20622;BME280;10470;42.670;23.354;2022-12-29T08:45:57;95798.34;;;8.14;100.00
20622;BME280;10470;42.670;23.354;2022-12-29T08:48:43;95808.81;;;8.12;100.00
20622;BME280;10470;42.670;23.354;2022-12-29T08:51:22;95796.72;;;8.20;100.00
20622;BME280;10470;42.670;23.354;2022-12-29T08:54:07;95794.72;;;7.52;100.00
20622;BME280;10470;42.670;23.354;2022-12-29T08:56:49;95788.09;;;7.56;100.00
20622;BME280;10470;42.670;23.354;2022-12-29T08:59:34;95783.16;;;8.20;100.00
20622;BME280;10470;42.670;23.354;2022-12-29T09:02:15;95773.78;;;8.24;100.00
20622;BME280;10470;42.670;23.354;2022-12-29T09:05:01;95793.78;;;8.07;100.00
20622;BME280;10470;42.670;23.354;2022-12-29T09:07:45;95789.53;;;8.37;100.00
20622;BME280;10470;42.670;23.354;2022-12-29T09:10:31;95789.94;;;8.01;100.00
20622;BME280;10470;42.670;23.354;2022-12-29T09:13:14;95788.66;;;8.47;100.00
20622;BME280;10470;42.670;23.354;2022-12-29T09:16:00;95782.75;;;8.52;100.00
20622;BME280;10470;42.670;23.354;2022-12-29T09:18:43;95781.69;;;8.46;100.00
20622;BME280;10470;42.670;23.354;2022-12-29T09:21:29;95780.09;;;8.48;100.00
20622;BME280;10470;42.670;23.354;2022-12-29T09:24:09;95772.19;;;8.27;100.00
20622;BME280;10470;42.670;23.354;2022-12-29T09:26:54;95759.13;;;8.49;100.00
20622;BME280;10470;42.670;23.354;2022-12-29T09:29:37;95780.03;;;8.52;100.00
20622;BME280;10470;42.670;23.354;2022-12-29T09:32:22;95775.59;;;8.92;100.00
20622;BME280;10470;42.670;23.354;2022-12-29T09:35:06;95780.00;;;8.83;100.00
20622;BME280;10470;42.670;23.354;2022-12-29T09:37:51;95775.94;;;8.67;100.00
20622;BME280;10470;42.670;23.354;2022-12-29T09:40:32;95772.47;;;8.36;100.00
20622;BME280;10470;42.670;23.354;2022-12-29T09:43:49;95775.44;;;8.49;100.00
20622;BME280;10470;42.670;23.354;2022-12-29T09:46:41;95766.44;;;8.79;100.00
20622;BME280;10470;42.670;23.354;2022-12-29T09:49:41;95759.88;;;9.04;100.00
20622;BME280;10470;42.670;23.354;2022-12-29T09:52:29;95759.22;;;9.19;100.00
20622;BME280;10470;42.670;23.354;2022-12-29T09:55:19;95765.19;;;9.34;100.00
20622;BME280;10470;42.670;23.354;2022-12-29T09:58:14;95740.06;;;9.27;100.00
20622;BME280;10470;42.670;23.354;2022-12-29T10:01:06;95757.31;;;9.40;100.00
20622;BME280;10470;42.670;23.354;2022-12-29T10:03:56;95750.84;;;9.34;100.00
20622;BME280;10470;42.670;23.354;2022-12-29T10:12:49;95740.25;;;9.39;100.00
20622;BME280;10470;42.670;23.354;2022-12-29T10:16:02;95740.69;;;9.78;100.00
20622;BME280;10470;42.670;23.354;2022-12-29T10:19:23;95738.41;;;9.76;100.00
20622;BME280;10470;42.670;23.354;2022-12-29T10:25:23;95729.66;;;10.05;100.00
20622;BME280;10470;42.670;23.354;2022-12-29T10:28:39;95734.31;;;10.44;100.00
20622;BME280;10470;42.670;23.354;2022-12-29T10:31:54;95728.72;;;10.12;100.00
20622;BME280;10470;42.670;23.354;2022-12-29T10:34:47;95732.03;;;10.43;100.00
20622;BME280;10470;42.670;23.354;2022-12-29T10:40:46;95704.88;;;10.88;100.00
20622;BME280;10470;42.670;23.354;2022-12-29T10:43:45;95716.63;;;10.85;100.00
20622;BME280;10470;42.670;23.354;2022-12-29T10:46:35;95706.97;;;11.30;100.00
20622;BME280;10470;42.670;23.354;2022-12-29T10:49:22;95720.72;;;11.26;100.00
20622;BME280;10470;42.670;23.354;2022-12-29T10:52:11;95709.25;;;11.48;100.00
20622;BME280;10470;42.670;23.354;2022-12-29T10:55:05;95715.38;;;10.90;100.00
20622;BME280;10470;42.670;23.354;2022-12-29T10:57:53;95714.69;;;11.77;100.00
20622;BME280;10470;42.670;23.354;2022-12-29T11:00:40;95697.13;;;12.20;100.00
20622;BME280;10470;42.670;23.354;2022-12-29T11:03:50;95705.91;;;12.53;100.00
20622;BME280;10470;42.670;23.354;2022-12-29T11:06:42;95700.94;;;12.99;100.00
20622;BME280;10470;42.670;23.354;2022-12-29T11:09:29;95703.63;;;11.97;100.00
20622;BME280;10470;42.670;23.354;2022-12-29T11:12:21;95697.03;;;12.75;100.00
20622;BME280;10470;42.670;23.354;2022-12-29T11:17:56;95701.19;;;12.54;100.00
20622;BME280;10470;42.670;23.354;2022-12-29T11:20:42;95698.28;;;13.08;100.00
20622;BME280;10470;42.670;23.354;2022-12-29T11:23:39;95691.03;;;13.15;100.00
20622;BME280;10470;42.670;23.354;2022-12-29T11:26:27;95690.63;;;13.29;100.00
20622;BME280;10470;42.670;23.354;2022-12-29T11:32:11;95692.19;;;13.52;100.00
20622;BME280;10470;42.670;23.354;2022-12-29T11:34:57;95697.66;;;12.79;100.00
20622;BME280;10470;42.670;23.354;2022-12-29T11:37:43;95691.09;;;13.49;100.00
20622;BME280;10470;42.670;23.354;2022-12-29T11:40:29;95671.31;;;14.20;100.00
20622;BME280;10470;42.670;23.354;2022-12-29T11:43:04;95683.84;;;14.31;100.00
20622;BME280;10470;42.670;23.354;2022-12-29T11:45:52;95678.53;;;14.05;100.00
20622;BME280;10470;42.670;23.354;2022-12-29T11:48:33;95681.22;;;13.96;100.00
20622;BME280;10470;42.670;23.354;2022-12-29T11:51:34;95678.50;;;13.52;100.00
20622;BME280;10470;42.670;23.354;2022-12-29T11:54:37;95665.44;;;13.78;100.00
20622;BME280;10470;42.670;23.354;2022-12-29T11:57:24;95676.94;;;13.95;100.00
20622;BME280;10470;42.670;23.354;2022-12-29T12:00:21;95675.34;;;13.85;100.00
20622;BME280;10470;42.670;23.354;2022-12-29T12:03:35;95670.94;;;14.40;100.00
20622;BME280;10470;42.670;23.354;2022-12-29T12:06:23;95677.63;;;14.71;100.00
20622;BME280;10470;42.670;23.354;2022-12-29T12:09:16;95675.09;;;14.85;100.00
20622;BME280;10470;42.670;23.354;2022-12-29T12:12:03;95653.63;;;15.12;100.00
20622;BME280;10470;42.670;23.354;2022-12-29T12:14:54;95676.09;;;15.47;100.00
20622;BME280;10470;42.670;23.354;2022-12-29T12:18:18;95671.16;;;16.15;100.00
20622;BME280;10470;42.670;23.354;2022-12-29T12:24:21;95660.22;;;15.60;100.00
20622;BME280;10470;42.670;23.354;2022-12-29T12:30:07;95655.78;;;15.90;100.00
20622;BME280;10470;42.670;23.354;2022-12-29T12:32:58;95659.44;;;15.97;100.00
20622;BME280;10470;42.670;23.354;2022-12-29T12:39:06;95653.50;;;15.80;100.00
20622;BME280;10470;42.670;23.354;2022-12-29T13:00:33;95643.91;;;15.29;100.00
20622;BME280;10470;42.670;23.354;2022-12-29T13:03:47;95638.53;;;15.35;100.00
20622;BME280;10470;42.670;23.354;2022-12-29T13:09:38;95645.56;;;15.63;100.00
20622;BME280;10470;42.670;23.354;2022-12-29T13:12:34;95641.97;;;14.39;100.00
20622;BME280;10470;42.670;23.354;2022-12-29T13:15:50;95647.63;;;14.76;100.00
20622;BME280;10470;42.670;23.354;2022-12-29T13:24:56;95649.00;;;13.56;100.00
20622;BME280;10470;42.670;23.354;2022-12-29T13:27:53;95652.75;;;13.49;100.00
20622;BME280;10470;42.670;23.354;2022-12-29T13:37:08;95644.66;;;12.25;100.00
20622;BME280;10470;42.670;23.354;2022-12-29T13:39:59;95639.41;;;13.04;100.00
20622;BME280;10470;42.670;23.354;2022-12-29T13:42:47;95626.06;;;12.58;100.00
20622;BME280;10470;42.670;23.354;2022-12-29T13:45:34;95650.75;;;12.80;100.00
20622;BME280;10470;42.670;23.354;2022-12-29T13:48:24;95644.38;;;12.83;100.00
20622;BME280;10470;42.670;23.354;2022-12-29T13:51:12;95645.63;;;12.18;100.00
20622;BME280;10470;42.670;23.354;2022-12-29T13:57:15;95649.34;;;12.50;100.00
20622;BME280;10470;42.670;23.354;2022-12-29T14:00:15;95648.94;;;12.26;100.00
20622;BME280;10470;42.670;23.354;2022-12-29T14:03:10;95655.38;;;12.07;100.00
20622;BME280;10470;42.670;23.354;2022-12-29T14:06:18;95651.22;;;12.28;100.00
20622;BME280;10470;42.670;23.354;2022-12-29T14:09:06;95657.47;;;12.41;100.00
20622;BME280;10470;42.670;23.354;2022-12-29T14:15:22;95653.63;;;12.26;100.00
20622;BME280;10470;42.670;23.354;2022-12-29T14:18:18;95654.28;;;12.04;100.00
20622;BME280;10470;42.670;23.354;2022-12-29T14:23:52;95659.38;;;11.89;100.00
20622;BME280;10470;42.670;23.354;2022-12-29T14:26:39;95670.06;;;11.84;100.00
20622;BME280;10470;42.670;23.354;2022-12-29T14:35:42;95673.34;;;11.62;100.00
20622;BME280;10470;42.670;23.354;2022-12-29T14:38:21;95671.72;;;11.52;100.00
20622;BME280;10470;42.670;23.354;2022-12-29T14:41:29;95658.84;;;11.36;100.00
20622;BME280;10470;42.670;23.354;2022-12-29T14:44:20;95666.91;;;11.27;100.00
20622;BME280;10470;42.670;23.354;2022-12-29T14:47:07;95661.63;;;11.20;100.00
20622;BME280;10470;42.670;23.354;2022-12-29T14:49:53;95675.66;;;11.05;100.00
20622;BME280;10470;42.670;23.354;2022-12-29T14:52:59;95662.00;;;11.05;100.00
20622;BME280;10470;42.670;23.354;2022-12-29T14:55:53;95663.63;;;11.03;100.00
20622;BME280;10470;42.670;23.354;2022-12-29T15:01:39;95664.66;;;10.92;100.00
20622;BME280;10470;42.670;23.354;2022-12-29T15:04:30;95665.44;;;10.77;100.00
20622;BME280;10470;42.670;23.354;2022-12-29T15:07:18;95660.16;;;10.69;100.00
20622;BME280;10470;42.670;23.354;2022-12-29T15:10:13;95674.03;;;10.42;100.00
20622;BME280;10470;42.670;23.354;2022-12-29T15:13:04;95661.09;;;10.30;100.00
20622;BME280;10470;42.670;23.354;2022-12-29T15:15:51;95652.84;;;10.14;100.00
20622;BME280;10470;42.670;23.354;2022-12-29T15:18:37;95649.50;;;10.06;100.00
20622;BME280;10470;42.670;23.354;2022-12-29T15:21:30;95661.69;;;9.81;100.00
20622;BME280;10470;42.670;23.354;2022-12-29T15:24:16;95661.50;;;10.09;100.00
20622;BME280;10470;42.670;23.354;2022-12-29T15:27:04;95656.66;;;10.00;100.00
20622;BME280;10470;42.670;23.354;2022-12-29T15:29:58;95654.56;;;9.88;100.00
20622;BME280;10470;42.670;23.354;2022-12-29T15:32:45;95651.31;;;9.76;100.00
20622;BME280;10470;42.670;23.354;2022-12-29T15:35:36;95653.69;;;9.74;100.00
20622;BME280;10470;42.670;23.354;2022-12-29T15:38:25;95648.84;;;9.82;100.00
20622;BME280;10470;42.670;23.354;2022-12-29T15:41:34;95649.19;;;9.84;100.00
20622;BME280;10470;42.670;23.354;2022-12-29T15:44:43;95652.06;;;9.57;100.00
20622;BME280;10470;42.670;23.354;2022-12-29T15:47:29;95647.91;;;9.52;100.00
20622;BME280;10470;42.670;23.354;2022-12-29T15:50:35;95641.63;;;9.35;100.00
20622;BME280;10470;42.670;23.354;2022-12-29T15:53:31;95642.44;;;9.32;100.00
20622;BME280;10470;42.670;23.354;2022-12-29T15:56:18;95643.69;;;9.28;100.00
20622;BME280;10470;42.670;23.354;2022-12-29T15:59:03;95642.31;;;9.39;100.00
20622;BME280;10470;42.670;23.354;2022-12-29T16:01:49;95650.41;;;9.43;100.00
20622;BME280;10470;42.670;23.354;2022-12-29T16:04:35;95648.22;;;9.74;100.00
20622;BME280;10470;42.670;23.354;2022-12-29T16:07:28;95658.28;;;9.37;100.00
20622;BME280;10470;42.670;23.354;2022-12-29T16:10:36;95651.28;;;9.36;100.00
20622;BME280;10470;42.670;23.354;2022-12-29T16:13:38;95658.06;;;9.28;100.00
20622;BME280;10470;42.670;23.354;2022-12-29T16:16:28;95656.81;;;9.33;100.00
20622;BME280;10470;42.670;23.354;2022-12-29T16:19:21;95657.63;;;9.10;100.00